CheckWX is a tool to help pilots better visualize weather data.  It is not intended as a substitute for an official pre-flight weather briefing.

17:23:55 UTC

KMDT TAF
Harrisburg International Airport
Harrisburg, Pennsylvania, USA
KMDT 131742Z 1318/1418 28008KT P6SM SCT050 FM140000 30006KT P6SM SCT250 FM141200 32006KT P6SM SKC

Jul-13@
18:00 UTC

Jul-13 @ 18:00 UTC

Jul-14@
00:00 UTC

Jul-14 @ 00:00 UTC

TAF KMDT 131742Z 1318/1418 28008KT P6SM SCT050

Expired

Wind
  • 280° at 8 KTS
Cloud Levels
  • Scattered at 5,000' AGL

Jul-14@
00:00 UTC

Jul-14 @ 00:00 UTC

Jul-14@
12:00 UTC

Jul-14 @ 12:00 UTC

FM140000 30006KT P6SM SCT250

Expired

Wind
  • 300° at 6 KTS
Cloud Levels
  • Scattered at 25,000' AGL

Jul-14@
12:00 UTC

Jul-14 @ 12:00 UTC

Jul-14@
18:00 UTC

Jul-14 @ 18:00 UTC

FM141200 32006KT P6SM SKC

From

From Standard forecast or significant change

Wind
  • 320° at 6 KTS
Cloud Levels
  • Clear skies